AerodromSadržaj TAF prognoze
LYBETAF LYBE 250500Z 2506/2606 14008KT CAVOK TX18/2512Z TN02/2606Z=
LYBTTAF LYBT 250500Z 2506/2606 12006KT CAVOK TX19/2513Z TN02/2506Z=
LYKVTAF LYKV 250500Z 2506/2606 12004KT CAVOK TX17/2513Z TNM03/2506Z=
LYNITAF LYNI 250500Z 2506/2606 11006KT CAVOK TX18/2512Z TNM02/2606Z=
LYVRTAF LYVR 250500Z 2506/2606 14020KT CAVOK TX17/2512Z TN02/2603Z TEMPO 2506/2510 16020G30KT BECMG 2510/2512 14008KT=
LYUZTAF LYUZ 250500Z 2506/2606 22008KT CAVOK TX16/2513Z TN06/2506Z TEMPO 2518/2602 24015G25KT=
LYPGTAF LYPG 250500Z 2506/2606 36005KT 9999 FEW040 SCT090 TX16/2513Z TN04/2506Z BECMG 2512/2514 16010KT TEMPO 2521/2606 15015G25KT 4000 RA BR=
LYTVTAF LYTV 250500Z 2506/2606 05006KT CAVOK TX16/2513Z TN00/2506Z BECMG 2508/2510 16012KT TEMPO 2520/2606 5000 RA=

Podaci učitani u: 2020-02-25 10:05:21 UTC

METAR, TAF, AIRMET, GAMET, SIGMET

Važna napomena: MET infоrmаciје nа оvim web strаnicаmа imајu infоrmаtivni kаrаktеr, nаmenjene su isključivo vаzduhоplоvnim kоrisnicima, nе smејu sе kоristiti zа bilо kоје kоmеrciјаlnе svrhе, i nе zаmеnjuјu dоkumеntаciјu zа lеt.